Time;durP1;ratioP1;P1;durP2;ratioP2;P2;SDS_P1;SDS_P2;PMS_P1;PMS_P2;Temp;Humidity;BMP_temperature;BMP_pressure;BME280_temperature;BME280_humidity;BME280_pressure;Samples;Min_cycle;Max_cycle;Signal;HPM_P1;HPM_P2
2024/03/16 00:03:36;;;;;;;2.65;2.40;;;9.40;99.90;;;9.87;100.00;97815.69;10301311;28;20308;-69
2024/03/16 00:08:39;;;;;;;3.75;2.55;;;9.40;99.90;;;9.80;100.00;97811.00;10294403;28;20226;-67
2024/03/16 00:13:43;;;;;;;2.65;2.35;;;9.40;99.90;;;9.80;100.00;97821.22;10326795;28;20236;-67
2024/03/16 00:18:46;;;;;;;2.72;2.50;;;9.40;99.90;;;9.85;100.00;97817.25;10297296;28;20225;-67
2024/03/16 00:23:50;;;;;;;2.00;1.83;;;9.40;99.90;;;9.93;100.00;97813.50;10273302;28;20297;-65
2024/03/16 00:28:53;;;;;;;2.00;1.90;;;9.40;99.90;;;9.76;100.00;97819.28;10325301;28;20325;-65
2024/03/16 00:33:57;;;;;;;2.47;2.28;;;9.30;99.90;;;9.73;100.00;97826.75;10289654;28;20255;-66
2024/03/16 00:39:00;;;;;;;2.42;1.90;;;9.30;99.90;;;9.78;100.00;97822.78;10312341;28;20223;-67
2024/03/16 00:44:04;;;;;;;2.38;2.17;;;9.40;99.90;;;9.88;100.00;97824.22;10263346;28;20241;-67
2024/03/16 00:49:07;;;;;;;2.60;2.40;;;9.40;99.90;;;9.86;100.00;97816.47;10313460;28;20239;-66
2024/03/16 00:54:11;;;;;;;3.28;2.10;;;9.40;99.90;;;9.85;100.00;97819.81;10263639;28;20802;-66
2024/03/16 00:59:15;;;;;;;2.90;2.70;;;9.40;99.90;;;9.93;100.00;97823.69;10306622;28;20230;-67
2024/03/16 01:04:18;;;;;;;2.58;2.38;;;9.50;99.90;;;9.99;100.00;97814.66;10340447;28;20664;-67
2024/03/16 01:09:22;;;;;;;2.72;2.53;;;9.50;99.90;;;10.02;100.00;97830.16;10294519;28;20286;-67
2024/03/16 01:14:25;;;;;;;3.10;2.83;;;9.50;99.90;;;9.83;100.00;97831.59;10283629;28;20223;-66
2024/03/16 01:19:29;;;;;;;2.97;2.67;;;9.30;99.90;;;9.83;100.00;97816.28;10318003;28;20234;-66
2024/03/16 01:24:32;;;;;;;2.72;2.53;;;9.30;99.90;;;9.84;100.00;97818.06;10260614;28;20590;-67
2024/03/16 01:29:35;;;;;;;3.28;2.10;;;9.30;99.90;;;9.83;100.00;97823.06;10276494;28;20233;-67
2024/03/16 01:34:39;;;;;;;1.45;1.45;;;9.30;99.90;;;9.76;100.00;97809.06;10302629;28;20230;-66
2024/03/16 01:39:42;;;;;;;1.35;1.35;;;9.20;99.90;;;9.65;100.00;97816.06;10273127;28;20235;-66
2024/03/16 01:45:02;;;;;;;2.03;1.70;;;9.10;99.90;;;9.61;100.00;97808.13;10295116;28;20237;-66
2024/03/16 01:50:07;;;;;;;1.60;1.30;;;9.10;99.90;;;9.57;100.00;97806.19;10265650;28;20245;-67
2024/03/16 01:55:10;;;;;;;1.50;1.40;;;9.00;99.90;;;9.48;100.00;97803.97;10319521;28;20219;-66
2024/03/16 02:00:15;;;;;;;1.20;1.20;;;8.90;99.90;;;9.50;100.00;97797.31;10333210;28;20234;-66
2024/03/16 02:05:19;;;;;;;1.83;1.73;;;8.90;99.90;;;9.47;100.00;97800.56;10281023;28;20231;-66
2024/03/16 02:10:22;;;;;;;1.85;1.75;;;8.90;99.90;;;9.36;100.00;97801.56;10283146;28;20241;-66
2024/03/16 02:15:26;;;;;;;1.55;1.45;;;8.90;99.90;;;9.35;100.00;97802.34;10305106;28;20229;-66
2024/03/16 02:20:31;;;;;;;1.70;1.60;;;8.90;99.90;;;9.43;100.00;97802.81;10273374;28;20320;-66
2024/03/16 02:25:35;;;;;;;1.65;1.60;;;9.00;99.90;;;9.46;100.00;97798.78;10331036;28;20230;-67
2024/03/16 02:30:38;;;;;;;2.42;2.22;;;8.90;99.90;;;9.46;100.00;97798.78;10285472;28;20226;-65
2024/03/16 02:35:42;;;;;;;2.33;2.13;;;8.90;99.90;;;9.57;100.00;97798.56;10305092;28;20257;-65
2024/03/16 02:40:45;;;;;;;1.90;1.80;;;9.00;99.90;;;9.61;100.00;97806.47;10278213;28;20242;-67
2024/03/16 02:45:48;;;;;;;1.92;1.83;;;9.10;99.90;;;9.61;100.00;97809.00;10275461;28;20257;-66
2024/03/16 02:50:52;;;;;;;1.77;1.67;;;9.10;99.90;;;9.31;100.00;97799.53;10255125;28;20300;-67
2024/03/16 02:55:55;;;;;;;2.35;1.70;;;8.90;99.90;;;9.32;100.00;97791.09;10272840;28;20649;-65
2024/03/16 03:00:59;;;;;;;1.50;1.50;;;8.80;99.90;;;9.24;100.00;97795.72;10344930;28;20728;-67
2024/03/16 03:06:03;;;;;;;2.03;1.90;;;8.80;99.90;;;9.32;100.00;97793.63;10300386;28;21565;-66
2024/03/16 03:11:08;;;;;;;4.88;3.13;;;8.90;99.90;;;9.48;100.00;97803.97;10258516;28;20231;-66
2024/03/16 03:16:12;;;;;;;2.45;2.20;;;9.00;99.90;;;9.48;100.00;97798.88;10275370;28;20691;-65
2024/03/16 03:21:15;;;;;;;2.33;2.13;;;9.00;99.90;;;9.47;100.00;97799.66;10277270;28;20708;-66
2024/03/16 03:26:18;;;;;;;1.90;1.80;;;9.00;99.90;;;9.60;100.00;97801.28;10279905;28;20238;-65
2024/03/16 03:31:22;;;;;;;2.03;1.58;;;9.00;99.90;;;9.53;100.00;97809.34;10332600;28;20373;-66
2024/03/16 03:36:25;;;;;;;2.22;1.90;;;9.00;99.90;;;9.44;100.00;97789.25;10301135;28;20697;-65
2024/03/16 03:41:28;;;;;;;1.52;1.42;;;9.00;99.90;;;9.45;100.00;97791.91;10314969;28;20268;-67
2024/03/16 03:46:49;;;;;;;1.75;1.65;;;8.90;99.90;;;9.52;100.00;97802.50;10298603;28;20236;-66
2024/03/16 03:51:54;;;;;;;1.42;1.33;;;8.90;99.90;;;9.65;100.00;97795.66;10273936;28;20227;-65
2024/03/16 03:56:58;;;;;;;1.75;1.70;;;9.00;99.90;;;9.60;100.00;97806.38;10275394;28;20380;-65
2024/03/16 04:02:01;;;;;;;1.90;1.50;;;9.00;99.90;;;9.68;100.00;97802.63;10302716;28;20231;-67
2024/03/16 04:07:05;;;;;;;1.60;1.50;;;9.10;99.90;;;9.49;100.00;97798.06;10293009;28;20310;-66
2024/03/16 04:12:09;;;;;;;2.08;1.65;;;9.00;99.90;;;9.42;100.00;97807.03;10311734;28;20257;-67
2024/03/16 04:17:12;;;;;;;2.03;1.80;;;9.00;99.90;;;9.40;100.00;97823.91;10295467;28;20226;-67
2024/03/16 04:22:16;;;;;;;1.38;1.27;;;8.90;99.90;;;9.49;100.00;97823.59;10280379;28;20757;-66
2024/03/16 04:27:19;;;;;;;1.95;1.85;;;9.00;99.90;;;9.36;100.00;97826.22;10280016;28;20231;-68
2024/03/16 04:32:26;;;;;;;1.67;1.58;;;8.90;99.90;;;9.36;100.00;97824.53;10314345;28;20246;-66
2024/03/16 04:37:30;;;;;;;1.80;1.70;;;8.90;99.90;;;9.41;100.00;97847.75;10276934;28;20228;-67
2024/03/16 04:42:33;;;;;;;2.42;1.48;;;8.90;99.90;;;9.33;100.00;97846.41;10264318;28;20230;-66
2024/03/16 04:47:36;;;;;;;1.85;1.80;;;8.80;99.90;;;9.40;100.00;97851.97;10280385;28;20241;-66
2024/03/16 04:52:40;;;;;;;2.08;1.88;;;8.90;99.90;;;9.44;100.00;97853.94;10283035;28;20230;-66
2024/03/16 04:57:43;;;;;;;1.80;1.70;;;8.90;99.90;;;9.45;100.00;97854.81;10282312;28;20279;-67
2024/03/16 05:02:48;;;;;;;1.50;1.40;;;8.90;99.90;;;9.34;100.00;97855.84;10270504;28;20230;-67
2024/03/16 05:07:51;;;;;;;2.00;1.52;;;8.80;99.90;;;9.39;100.00;97859.56;10270678;28;20851;-66
2024/03/16 05:12:54;;;;;;;1.35;1.30;;;8.80;99.90;;;9.40;100.00;97874.94;10296895;28;20317;-66
2024/03/16 05:17:59;;;;;;;1.67;1.58;;;8.90;99.90;;;9.35;100.00;97885.63;10267137;28;20235;-67
2024/03/16 05:23:02;;;;;;;2.05;1.85;;;8.80;99.90;;;9.45;100.00;97888.88;10307138;28;20233;-68
2024/03/16 05:28:06;;;;;;;1.90;1.80;;;8.90;99.90;;;9.46;100.00;97890.63;10293152;28;20899;-66
2024/03/16 05:33:09;;;;;;;2.30;2.20;;;8.90;99.90;;;9.42;100.00;97893.78;10283611;28;21441;-65
2024/03/16 05:38:15;;;;;;;2.10;1.90;;;8.90;99.90;;;9.41;100.00;97884.38;10277793;28;20321;-66
2024/03/16 05:43:19;;;;;;;2.10;2.00;;;8.90;99.90;;;9.37;100.00;97884.06;10295941;28;20226;-66
2024/03/16 05:48:22;;;;;;;2.33;2.15;;;8.80;99.90;;;9.34;100.00;97891.53;10294269;28;20354;-67
2024/03/16 05:53:26;;;;;;;2.15;1.73;;;8.80;99.90;;;9.35;100.00;97900.94;10264816;28;20235;-66
2024/03/16 05:58:31;;;;;;;4.15;2.15;;;8.80;99.90;;;9.32;100.00;97910.97;10318785;28;20222;-67
2024/03/16 06:03:35;;;;;;;2.40;2.20;;;8.80;99.90;;;9.31;100.00;97911.75;10283049;28;20265;-67
2024/03/16 06:08:38;;;;;;;2.55;1.85;;;8.80;99.90;;;9.31;100.00;97919.41;10318253;28;20230;-66
2024/03/16 06:13:41;;;;;;;2.23;1.77;;;8.80;99.90;;;9.34;100.00;97928.13;10317503;28;20230;-68
2024/03/16 06:18:47;;;;;;;2.10;1.90;;;8.80;99.90;;;9.41;100.00;97932.84;10349159;28;20231;-67
2024/03/16 06:23:51;;;;;;;2.67;1.60;;;8.90;99.90;;;9.51;100.00;97934.28;10285232;28;20223;-68
2024/03/16 06:29:04;;;;;;;2.95;2.00;;;9.00;99.90;;;9.59;100.00;97947.53;10333467;28;20679;-67
2024/03/16 06:34:08;;;;;;;2.38;2.10;;;9.00;99.90;;;9.61;100.00;97945.94;10301958;28;20229;-67
2024/03/16 06:39:11;;;;;;;2.47;2.28;;;9.10;99.90;;;9.60;100.00;97954.38;10259629;28;20243;-67
2024/03/16 06:44:15;;;;;;;2.45;2.15;;;9.00;99.90;;;9.68;100.00;97968.50;10290048;28;20231;-66
2024/03/16 06:49:18;;;;;;;2.05;1.95;;;9.10;99.90;;;9.71;100.00;97968.69;10281890;28;20238;-66
2024/03/16 06:54:21;;;;;;;2.10;2.00;;;9.10;99.90;;;9.86;100.00;97971.31;10294812;28;20313;-67
2024/03/16 06:59:25;;;;;;;2.45;2.00;;;9.20;99.90;;;9.96;100.00;97971.09;10312619;28;21013;-69
2024/03/16 07:04:28;;;;;;;2.40;1.50;;;9.30;99.90;;;9.94;100.00;97972.66;10309185;28;20749;-67
2024/03/16 07:09:32;;;;;;;2.55;1.63;;;9.30;99.90;;;10.02;100.00;97980.81;10292220;28;20226;-70
2024/03/16 07:14:35;;;;;;;2.03;1.70;;;9.40;99.90;;;10.08;100.00;97991.38;10296927;28;20348;-66
2024/03/16 07:19:38;;;;;;;2.70;1.88;;;9.40;99.90;;;10.19;100.00;97995.47;10266645;28;20366;-68
2024/03/16 07:24:42;;;;;;;1.88;1.60;;;9.50;99.90;;;10.15;100.00;98001.16;10289419;28;20718;-67
2024/03/16 07:29:45;;;;;;;1.60;1.40;;;9.50;99.90;;;10.18;100.00;98003.91;10298986;28;20242;-66
2024/03/16 07:34:48;;;;;;;2.33;2.08;;;9.60;99.90;;;10.15;100.00;98017.38;10275242;28;20227;-67
2024/03/16 07:39:52;;;;;;;1.98;1.80;;;9.60;99.90;;;10.20;100.00;98027.00;10314790;28;20234;-66
2024/03/16 07:44:55;;;;;;;2.53;2.17;;;9.70;99.90;;;10.08;100.00;98027.13;10257160;28;20233;-67
2024/03/16 07:49:59;;;;;;;3.08;1.83;;;9.60;99.90;;;10.14;100.00;98027.50;10278469;28;20761;-67
2024/03/16 07:55:06;;;;;;;3.75;2.53;;;9.70;99.90;;;10.11;100.00;98032.44;10348833;28;20222;-66
2024/03/16 08:00:11;;;;;;;2.47;2.28;;;9.60;99.90;;;10.10;100.00;98039.22;10303040;28;20230;-67
2024/03/16 08:05:15;;;;;;;4.32;3.85;;;9.60;99.90;;;10.10;100.00;98052.00;10326180;28;20663;-67
2024/03/16 08:10:18;;;;;;;1.98;1.88;;;9.70;99.90;;;10.07;100.00;98061.09;10271989;28;20226;-66
2024/03/16 08:15:22;;;;;;;3.20;1.98;;;9.60;99.90;;;10.02;100.00;98063.38;10300938;28;20237;-67
2024/03/16 08:20:25;;;;;;;2.90;2.15;;;9.60;99.90;;;10.20;100.00;98068.75;10309697;28;20408;-66
2024/03/16 08:25:29;;;;;;;2.20;1.83;;;9.80;99.90;;;10.44;100.00;98068.50;10286811;28;20231;-68
2024/03/16 08:30:34;;;;;;;3.75;2.40;;;9.90;99.90;;;10.62;100.00;98069.63;10296798;28;20340;-66
2024/03/16 08:35:37;;;;;;;4.40;2.40;;;10.00;99.90;;;10.60;100.00;98061.00;10355967;28;20975;-67
2024/03/16 08:40:41;;;;;;;3.65;2.67;;;10.00;99.90;;;10.66;100.00;98065.59;10354523;28;20227;-67
2024/03/16 08:45:44;;;;;;;3.50;2.42;;;10.10;99.90;;;10.86;100.00;98074.44;10303028;28;20250;-66
2024/03/16 08:50:48;;;;;;;5.75;2.40;;;10.30;99.90;;;11.04;100.00;98073.88;10274069;28;20235;-67
2024/03/16 08:55:56;;;;;;;2.33;2.13;;;10.50;99.90;;;11.26;100.00;98069.97;10277486;28;20227;-67
2024/03/16 09:00:59;;;;;;;3.83;2.58;;;10.60;99.90;;;11.59;100.00;98078.72;10284482;28;21770;-66
2024/03/16 09:06:04;;;;;;;3.08;2.38;;;10.90;99.90;;;11.77;100.00;98073.72;10312017;28;20372;-67
2024/03/16 09:11:09;;;;;;;3.03;1.85;;;11.10;99.90;;;11.97;100.00;98085.09;10331886;28;20239;-66
2024/03/16 09:16:12;;;;;;;3.28;2.28;;;11.40;99.90;;;11.87;100.00;98085.38;10264554;28;20592;-67
2024/03/16 09:21:16;;;;;;;2.97;2.20;;;11.30;99.90;;;11.86;100.00;98096.44;10260842;28;20357;-67
2024/03/16 09:26:19;;;;;;;2.00;1.80;;;11.20;99.90;;;11.81;100.00;98096.13;10300382;28;20223;-67
2024/03/16 09:31:25;;;;;;;2.60;1.60;;;11.20;99.90;;;11.83;100.00;98098.78;10293361;28;20277;-67
2024/03/16 09:36:29;;;;;;;3.20;1.75;;;11.20;99.90;;;11.76;100.00;98094.13;10308708;28;20320;-68
2024/03/16 09:41:33;;;;;;;2.60;1.92;;;11.00;99.90;;;11.63;100.00;98103.66;10292041;28;20233;-66
2024/03/16 09:46:36;;;;;;;1.73;1.38;;;11.10;99.90;;;12.01;100.00;98104.97;10268271;28;20230;-67
2024/03/16 09:51:38;;;;;;;1.85;1.50;;;11.50;99.90;;;12.37;100.00;98107.78;10268124;28;20329;-67
2024/03/16 09:56:41;;;;;;;4.00;2.28;;;11.80;99.90;;;12.29;100.00;98111.59;10293683;28;20700;-66
2024/03/16 10:01:43;;;;;;;5.57;3.05;;;11.70;99.90;;;12.35;100.00;98123.06;10311627;28;20669;-66
2024/03/16 10:06:45;;;;;;;2.05;1.73;;;11.80;99.90;;;12.50;100.00;98112.75;10313582;28;20245;-67
2024/03/16 10:11:48;;;;;;;3.10;1.77;;;11.80;99.90;;;12.63;100.00;98110.06;10248720;28;20227;-67
2024/03/16 10:16:50;;;;;;;3.50;2.88;;;12.00;99.90;;;12.76;100.00;98121.84;10241263;28;20238;-66
2024/03/16 10:21:54;;;;;;;4.78;2.72;;;12.20;99.90;;;12.78;100.00;98116.78;10284903;28;20241;-66
2024/03/16 10:26:56;;;;;;;3.03;1.63;;;12.20;99.90;;;12.80;100.00;98112.63;10323844;28;20222;-66
2024/03/16 10:32:00;;;;;;;1.63;1.52;;;12.20;99.90;;;13.05;100.00;98114.78;10295082;28;20842;-67
2024/03/16 10:37:03;;;;;;;2.20;1.85;;;12.50;99.90;;;13.42;100.00;98112.44;10282571;28;20749;-67
2024/03/16 10:42:08;;;;;;;1.90;1.45;;;12.90;99.90;;;13.48;100.00;98117.88;10270832;28;20238;-67
2024/03/16 10:47:14;;;;;;;2.42;1.88;;;13.00;99.90;;;13.37;100.00;98126.72;10317488;28;20805;-67
2024/03/16 10:52:18;;;;;;;2.95;1.42;;;12.80;99.90;;;13.00;100.00;98142.75;10261759;28;20781;-68
2024/03/16 10:57:20;;;;;;;1.85;1.75;;;12.50;99.90;;;12.69;100.00;98149.66;10257977;28;20365;-67
2024/03/16 11:02:23;;;;;;;2.47;1.92;;;12.10;99.90;;;12.60;100.00;98153.47;10256693;28;20234;-66
2024/03/16 11:07:26;;;;;;;2.00;1.70;;;12.00;99.90;;;12.63;100.00;98156.22;10267080;28;20666;-66
2024/03/16 11:12:33;;;;;;;1.60;1.35;;;12.10;99.90;;;12.74;100.00;98154.22;10272718;23;20313;-66
2024/03/16 11:17:36;;;;;;;1.33;1.23;;;12.20;99.90;;;12.90;100.00;98140.50;10242000;28;20233;-66
2024/03/16 11:22:38;;;;;;;1.90;1.70;;;12.30;99.90;;;12.71;100.00;98148.06;10200686;28;21103;-67
2024/03/16 11:27:42;;;;;;;1.83;1.73;;;12.10;99.90;;;12.77;100.00;98153.50;10168119;28;20750;-66
2024/03/16 11:32:44;;;;;;;2.08;1.88;;;12.10;99.90;;;12.69;100.00;98159.91;10150064;28;20316;-67
2024/03/16 11:37:47;;;;;;;2.17;1.80;;;12.20;99.90;;;12.73;100.00;98157.56;10136700;28;20680;-66
2024/03/16 11:42:49;;;;;;;1.80;1.52;;;12.30;99.90;;;12.82;100.00;98152.06;10204600;28;20705;-66
2024/03/16 11:47:52;;;;;;;1.23;1.23;;;12.40;99.90;;;13.15;100.00;98152.94;10186701;28;20807;-66
2024/03/16 11:52:54;;;;;;;1.65;1.55;;;12.70;99.90;;;13.32;100.00;98146.13;10183150;28;20243;-66
2024/03/16 11:57:57;;;;;;;1.38;1.27;;;12.80;99.90;;;13.45;99.81;98148.53;10209253;28;20666;-65
2024/03/16 12:03:00;;;;;;;1.50;1.23;;;13.00;99.90;;;13.62;100.00;98145.91;10201178;28;20282;-66
2024/03/16 12:08:04;;;;;;;1.23;1.20;;;13.10;99.90;;;13.78;97.84;98156.13;10171876;28;20327;-67
2024/03/16 12:13:07;;;;;;;1.15;0.90;;;13.20;99.90;;;13.75;96.23;98156.84;10207205;28;20275;-66
2024/03/16 12:18:09;;;;;;;1.00;0.90;;;13.20;99.90;;;13.90;92.95;98150.72;10210530;28;20335;-66
2024/03/16 12:23:11;;;;;;;1.13;1.10;;;13.40;99.90;;;13.93;92.88;98141.44;10212914;28;20255;-66
2024/03/16 12:28:14;;;;;;;1.33;1.23;;;13.30;99.90;;;13.65;87.16;98148.63;10217199;28;20738;-65
2024/03/16 12:33:17;;;;;;;1.17;1.00;;;13.10;99.90;;;13.92;90.76;98154.25;10233288;28;20556;-66
2024/03/16 12:38:19;;;;;;;2.10;1.10;;;13.30;99.90;;;14.06;87.56;98150.66;10214785;28;20267;-66
2024/03/16 12:43:22;;;;;;;1.15;1.13;;;13.40;99.90;;;14.11;84.78;98146.63;10185724;28;20324;-66
2024/03/16 12:48:25;;;;;;;3.05;2.50;;;13.60;99.90;;;14.27;82.62;98155.03;10210804;28;20255;-65
2024/03/16 12:53:27;;;;;;;1.40;1.30;;;13.80;99.90;;;14.20;82.96;98159.03;10167080;28;21705;-65
2024/03/16 12:58:29;;;;;;;0.88;0.88;;;13.70;99.90;;;14.14;81.31;98161.31;10176605;28;20389;-65
2024/03/16 13:03:32;;;;;;;0.90;0.90;;;13.60;99.90;;;14.09;80.11;98161.06;10175784;28;20319;-66
2024/03/16 13:08:35;;;;;;;1.90;1.40;;;13.50;99.90;;;14.11;83.34;98168.88;10164325;28;20746;-65
2024/03/16 13:13:37;;;;;;;1.75;1.13;;;13.50;99.90;;;14.27;84.82;98155.94;10186003;29;20320;-65
2024/03/16 13:18:40;;;;;;;1.08;1.08;;;13.70;99.90;;;14.56;82.25;98169.28;10191721;28;20343;-66
2024/03/16 13:23:42;;;;;;;0.90;0.90;;;13.80;99.90;;;14.77;80.73;98165.16;10208390;28;20260;-67
2024/03/16 13:28:44;;;;;;;0.90;0.90;;;14.00;99.90;;;14.55;80.10;98152.13;10203888;28;20230;-67
2024/03/16 13:33:47;;;;;;;1.00;1.00;;;13.90;99.90;;;14.40;77.96;98152.25;10167642;28;20224;-67
2024/03/16 13:38:49;;;;;;;1.25;1.25;;;13.80;99.90;;;14.23;78.47;98151.47;10197244;28;20807;-67
2024/03/16 13:43:54;;;;;;;1.38;1.23;;;13.60;99.90;;;13.96;76.76;98146.78;10199458;28;20351;-67
2024/03/16 13:48:59;;;;;;;1.13;1.13;;;13.40;99.90;;;14.06;75.90;98144.63;10199058;28;20224;-64
2024/03/16 13:54:02;;;;;;;1.20;1.10;;;13.40;99.90;;;14.34;73.97;98147.69;10212881;28;21729;-67
2024/03/16 13:59:04;;;;;;;1.15;1.05;;;13.80;99.90;;;14.52;75.01;98150.28;10160655;28;20247;-66
2024/03/16 14:04:08;;;;;;;1.30;1.20;;;14.00;99.90;;;14.74;76.30;98159.88;10153563;28;20243;-66
2024/03/16 14:09:12;;;;;;;1.50;1.50;;;14.10;99.90;;;15.17;71.86;98150.59;10160615;28;20225;-66
2024/03/16 14:14:15;;;;;;;1.35;1.25;;;14.60;99.90;;;15.13;69.78;98149.56;10156542;28;20312;-67
2024/03/16 14:19:18;;;;;;;1.23;1.20;;;14.60;99.90;;;14.99;70.26;98148.97;10150675;28;20391;-66
2024/03/16 14:24:20;;;;;;;1.50;1.40;;;14.40;99.90;;;14.94;71.65;98152.16;10167422;28;20312;-66
2024/03/16 14:29:23;;;;;;;2.30;1.63;;;14.30;99.90;;;15.08;70.88;98159.69;10178569;28;20321;-66
2024/03/16 14:34:26;;;;;;;1.50;1.40;;;14.30;99.90;;;15.16;71.73;98154.84;10205774;28;21546;-66
2024/03/16 14:39:29;;;;;;;1.30;1.17;;;14.50;99.90;;;15.39;69.82;98157.53;10205493;28;20679;-66
2024/03/16 14:44:31;;;;;;;2.00;1.90;;;14.80;99.90;;;15.32;68.60;98166.72;10175483;28;20311;-67
2024/03/16 14:49:34;;;;;;;2.17;1.88;;;14.80;99.90;;;15.18;71.39;98170.38;10185606;28;21880;-66
2024/03/16 14:54:38;;;;;;;1.58;1.48;;;14.40;99.90;;;15.31;69.23;98163.25;10189139;28;20672;-66
2024/03/16 14:59:41;;;;;;;1.77;1.67;;;14.70;99.90;;;15.48;67.58;98157.94;10180703;28;20319;-66
2024/03/16 15:04:44;;;;;;;1.55;1.45;;;14.70;99.90;;;15.42;64.90;98174.00;10155143;28;20233;-66
2024/03/16 15:09:46;;;;;;;1.40;1.30;;;14.70;99.90;;;15.22;64.84;98187.72;10163345;28;20624;-66
2024/03/16 15:14:50;;;;;;;1.40;1.40;;;14.60;99.90;;;15.15;64.33;98196.88;10131611;28;22229;-64
2024/03/16 15:19:52;;;;;;;1.17;1.08;;;14.50;99.90;;;15.17;63.34;98200.41;10164170;28;20221;-65
2024/03/16 15:25:01;;;;;;;1.42;1.42;;;14.50;99.90;;;15.18;63.98;98203.84;10157913;28;20308;-63
2024/03/16 15:30:03;;;;;;;1.15;1.15;;;14.50;99.90;;;15.08;63.38;98215.44;10164302;28;20324;-65
2024/03/16 15:35:09;;;;;;;1.30;1.20;;;14.50;99.90;;;15.01;65.38;98226.28;10139525;28;20665;-64
2024/03/16 15:40:13;;;;;;;1.10;1.10;;;14.40;99.90;;;14.87;66.00;98229.09;10155486;28;20323;-65
2024/03/16 15:45:16;;;;;;;1.50;1.40;;;14.20;99.90;;;14.25;68.66;98265.56;10172775;28;20359;-65
2024/03/16 15:50:18;;;;;;;1.48;1.38;;;13.70;99.90;;;13.59;76.68;98264.81;10146953;28;20228;-66
2024/03/16 15:55:21;;;;;;;1.42;1.30;;;13.00;99.90;;;13.11;81.40;98279.34;10183242;28;20670;-65
2024/03/16 16:00:23;;;;;;;1.30;1.30;;;12.60;99.90;;;13.11;85.31;98296.44;10179456;28;21935;-66
2024/03/16 16:05:26;;;;;;;31.20;27.20;;;12.40;99.90;;;12.90;89.39;98311.53;10179679;28;20319;-65
2024/03/16 16:10:28;;;;;;;2.30;2.20;;;12.30;99.90;;;12.53;92.65;98327.41;10163388;28;20231;-65
2024/03/16 16:15:30;;;;;;;2.20;2.10;;;12.00;99.90;;;12.36;97.51;98334.13;10148814;28;20363;-65
2024/03/16 16:20:33;;;;;;;1.73;1.63;;;11.70;99.90;;;11.97;100.00;98348.97;10172313;28;20327;-65
2024/03/16 16:25:35;;;;;;;1.45;1.35;;;11.60;99.90;;;11.67;100.00;98359.09;10169039;28;20239;-64
2024/03/16 16:30:38;;;;;;;1.55;1.55;;;11.20;99.90;;;11.43;100.00;98367.84;10160225;28;20659;-65
2024/03/16 16:35:43;;;;;;;1.50;1.50;;;11.00;99.90;;;11.40;100.00;98376.22;10169282;28;20228;-65
2024/03/16 16:40:47;;;;;;;1.77;1.67;;;10.90;99.90;;;11.23;100.00;98387.97;10182724;28;20739;-67
2024/03/16 16:45:52;;;;;;;1.55;1.55;;;10.80;99.90;;;11.16;100.00;98397.69;10172212;28;20267;-65
2024/03/16 16:50:56;;;;;;;3.42;2.70;;;10.70;99.90;;;11.18;100.00;98401.25;10182160;28;20278;-65
2024/03/16 16:55:58;;;;;;;2.92;2.72;;;10.70;99.90;;;11.14;100.00;98405.28;10165575;28;20229;-64
2024/03/16 17:01:00;;;;;;;2.78;2.60;;;10.60;99.90;;;10.96;100.00;98409.22;10140626;28;20236;-65
2024/03/16 17:06:05;;;;;;;27.52;23.65;;;10.50;99.90;;;10.86;100.00;98414.53;10203580;28;21142;-66
2024/03/16 17:11:11;;;;;;;6.80;6.25;;;10.40;99.90;;;10.72;100.00;98427.31;10234460;23;20333;-72
2024/03/16 17:16:14;;;;;;;2.85;2.65;;;10.30;99.90;;;10.68;100.00;98427.03;10347141;28;20232;-71
2024/03/16 17:21:18;;;;;;;2.50;2.30;;;10.20;99.90;;;10.65;100.00;98427.69;10341057;28;21023;-71
2024/03/16 17:26:23;;;;;;;3.10;2.90;;;10.10;99.90;;;10.66;100.00;98439.69;10368881;28;20240;-71
2024/03/16 17:31:25;;;;;;;3.97;3.67;;;10.10;99.90;;;10.44;100.00;98439.03;10330463;28;20324;-68
2024/03/16 17:36:27;;;;;;;3.38;3.08;;;9.90;99.90;;;10.35;100.00;98457.19;10341971;28;21331;-71
2024/03/16 17:41:30;;;;;;;3.63;3.42;;;9.80;99.90;;;10.36;100.00;98465.00;10350703;28;20670;-70
2024/03/16 17:46:32;;;;;;;5.00;4.60;;;9.80;99.90;;;10.32;100.00;98463.00;10329764;28;20224;-71
2024/03/16 17:51:34;;;;;;;4.93;4.53;;;9.80;99.90;;;10.32;100.00;98468.09;10335449;28;20739;-70
2024/03/16 17:56:37;;;;;;;5.75;5.18;;;9.80;99.90;;;10.27;100.00;98478.78;10349843;28;20217;-69
2024/03/16 18:01:39;;;;;;;5.15;4.78;;;9.70;99.90;;;10.22;100.00;98486.13;10331015;28;20647;-70
2024/03/16 18:06:41;;;;;;;4.90;4.50;;;9.60;99.90;;;10.22;100.00;98488.69;10323723;28;20231;-69
2024/03/16 18:11:43;;;;;;;4.95;4.57;;;9.60;99.90;;;10.17;100.00;98489.16;10328845;28;20240;-71
2024/03/16 18:16:47;;;;;;;3.75;3.55;;;9.50;99.90;;;10.08;100.00;98497.94;10360095;28;20304;-69
2024/03/16 18:21:51;;;;;;;7.75;6.95;;;9.50;99.90;;;9.97;100.00;98516.75;10356215;28;20236;-71
2024/03/16 18:26:54;;;;;;;6.03;5.53;;;9.30;99.90;;;9.86;100.00;98521.09;10355584;28;20828;-69
2024/03/16 18:31:57;;;;;;;7.70;6.90;;;9.20;99.90;;;9.78;100.00;98528.97;10363974;28;20221;-69
2024/03/16 18:36:59;;;;;;;17.77;15.88;;;9.10;99.90;;;9.69;100.00;98541.97;10362116;28;20226;-68
2024/03/16 18:42:03;;;;;;;11.52;10.52;;;9.00;99.90;;;9.52;100.00;98537.34;10356637;28;20705;-70
2024/03/16 18:47:06;;;;;;;7.90;7.22;;;8.90;99.90;;;9.53;100.00;98545.13;10341941;28;20222;-69
2024/03/16 18:52:08;;;;;;;9.13;8.32;;;8.90;99.90;;;9.60;100.00;98542.22;10359164;28;20971;-71
2024/03/16 18:57:15;;;;;;;10.00;9.02;;;9.00;99.90;;;9.67;100.00;98553.75;10364530;28;20237;-69
2024/03/16 19:02:17;;;;;;;8.63;7.78;;;9.10;99.90;;;9.64;100.00;98561.19;10375640;28;20312;-71
2024/03/16 19:07:21;;;;;;;16.98;15.15;;;9.00;99.90;;;9.81;100.00;98554.72;10363293;28;20313;-71
2024/03/16 19:12:24;;;;;;;9.98;9.05;;;9.10;99.90;;;9.72;100.00;98557.50;10372182;28;20225;-68
2024/03/16 19:17:26;;;;;;;10.00;9.20;;;9.00;99.90;;;9.57;100.00;98564.09;10395547;28;20681;-70
2024/03/16 19:22:29;;;;;;;9.93;9.02;;;8.90;99.90;;;9.58;100.00;98578.59;10344976;28;21253;-69
2024/03/16 19:27:32;;;;;;;8.60;7.75;;;9.00;99.90;;;9.60;100.00;98577.06;10305349;28;20232;-72
2024/03/16 19:32:35;;;;;;;9.88;8.98;;;9.00;99.90;;;9.55;100.00;98575.84;10347822;28;20238;-69
2024/03/16 19:37:37;;;;;;;15.00;13.57;;;8.90;99.90;;;9.61;100.00;98589.03;10363432;28;20229;-69
2024/03/16 19:42:41;;;;;;;14.32;12.98;;;8.90;99.90;;;9.55;100.00;98591.16;10362982;28;20251;-69
2024/03/16 19:47:44;;;;;;;12.25;10.75;;;8.90;99.90;;;9.54;100.00;98597.03;10374240;28;20765;-69
2024/03/16 19:52:46;;;;;;;29.52;26.13;;;8.80;99.90;;;9.52;100.00;98602.00;10366765;28;20233;-69
2024/03/16 19:57:49;;;;;;;17.42;15.90;;;8.80;99.90;;;9.50;100.00;98601.03;10414617;28;20320;-71
2024/03/16 20:02:52;;;;;;;8.60;7.80;;;8.80;99.90;;;9.51;100.00;98612.13;10377025;28;20432;-72
2024/03/16 20:07:55;;;;;;;10.10;9.15;;;8.70;99.90;;;9.50;100.00;98615.44;10366212;28;20221;-72
2024/03/16 20:12:59;;;;;;;9.93;9.00;;;8.80;99.90;;;9.45;100.00;98613.44;10360674;28;20259;-71
2024/03/16 20:18:01;;;;;;;8.65;8.05;;;8.80;99.90;;;9.51;100.00;98614.69;10377854;28;20221;-72
2024/03/16 20:23:04;;;;;;;6.70;6.13;;;8.80;99.90;;;9.24;100.00;98619.50;10358447;28;20226;-72
2024/03/16 20:28:08;;;;;;;5.00;4.70;;;8.60;99.90;;;9.25;100.00;98617.06;10360048;28;20218;-69
2024/03/16 20:33:11;;;;;;;6.10;5.53;;;8.60;99.90;;;9.22;100.00;98631.28;10366292;28;20888;-69
2024/03/16 20:38:14;;;;;;;5.45;5.00;;;8.60;99.90;;;9.21;100.00;98627.84;10378650;28;20768;-70
2024/03/16 20:43:17;;;;;;;8.35;7.55;;;8.60;99.90;;;9.29;100.00;98638.59;10389321;28;20268;-70
2024/03/16 20:48:19;;;;;;;7.70;7.00;;;8.70;99.90;;;9.35;100.00;98631.38;10382676;28;20321;-72
2024/03/16 20:53:22;;;;;;;7.75;7.03;;;8.70;99.90;;;9.35;100.00;98633.94;10387487;28;20348;-69
2024/03/16 20:58:25;;;;;;;8.63;7.90;;;8.70;99.90;;;9.31;100.00;98638.72;10400328;28;20305;-69
2024/03/16 21:03:28;;;;;;;9.23;8.43;;;8.70;99.90;;;9.32;100.00;98626.06;10389256;28;20309;-70